createdAt,value
2019-05-26T00:00:49.274Z,57.83
2019-05-26T00:05:50.824Z,58.08
2019-05-26T00:10:52.135Z,58.39
2019-05-26T00:15:53.484Z,58.27
2019-05-26T00:20:54.797Z,58.71
2019-05-26T00:25:56.119Z,58.44
2019-05-26T00:30:57.433Z,58.44
2019-05-26T00:35:58.826Z,58.53
2019-05-26T00:41:00.132Z,58.79
2019-05-26T00:46:01.466Z,59.05
2019-05-26T00:51:02.785Z,59.05
2019-05-26T00:56:04.137Z,59.22
2019-05-26T01:01:05.520Z,59.55
2019-05-26T01:06:06.910Z,59.34
2019-05-26T01:11:08.329Z,59.39
2019-05-26T01:16:09.662Z,59.39
2019-05-26T01:21:11.017Z,59.74
2019-05-26T01:26:12.431Z,59.41
2019-05-26T01:31:13.850Z,59.82
2019-05-26T01:36:15.245Z,59.80
2019-05-26T01:41:16.533Z,60.09
2019-05-26T01:46:18.617Z,60.14
2019-05-26T01:51:20.668Z,60.11
2019-05-26T01:56:22.010Z,60.02
2019-05-26T02:01:23.325Z,60.00
2019-05-26T02:06:24.624Z,60.02
2019-05-26T02:11:25.945Z,60.06
2019-05-26T02:16:27.270Z,59.83
2019-05-26T02:21:28.623Z,59.70
2019-05-26T02:26:29.965Z,59.86
2019-05-26T02:31:32.018Z,59.63
2019-05-26T02:36:33.346Z,59.77
2019-05-26T02:41:34.703Z,59.68
2019-05-26T02:46:36.103Z,59.47
2019-05-26T02:51:37.459Z,59.53
2019-05-26T02:56:38.848Z,59.45
2019-05-26T03:02:01.287Z,59.40
2019-05-26T03:06:42.247Z,59.51
2019-05-26T03:11:43.624Z,59.40
2019-05-26T03:16:44.974Z,59.58
2019-05-26T03:21:46.344Z,59.26
2019-05-26T03:26:47.672Z,59.18
2019-05-26T03:31:49.074Z,59.59
2019-05-26T03:36:50.402Z,59.35
2019-05-26T03:41:52.860Z,59.60
2019-05-26T03:46:54.554Z,59.85
2019-05-26T03:51:56.629Z,60.29
2019-05-26T03:56:57.949Z,60.05
2019-05-26T04:01:59.297Z,60.21
2019-05-26T04:07:00.624Z,60.17
2019-05-26T04:12:02.698Z,60.08
2019-05-26T04:17:04.766Z,60.06
2019-05-26T04:22:06.834Z,60.10
2019-05-26T04:27:08.292Z,60.20
2019-05-26T04:32:09.635Z,60.28
2019-05-26T04:37:11.018Z,59.91
2019-05-26T04:42:12.321Z,59.83
2019-05-26T04:47:14.385Z,60.53
2019-05-26T04:52:15.718Z,60.20
2019-05-26T04:57:17.049Z,60.38
2019-05-26T05:02:18.386Z,59.95
2019-05-26T05:07:19.710Z,59.72
2019-05-26T05:12:21.057Z,59.40
2019-05-26T05:17:22.536Z,59.35
2019-05-26T05:22:23.866Z,59.48
2019-05-26T05:27:25.208Z,59.17
2019-05-26T05:32:27.237Z,58.96
2019-05-26T05:37:28.581Z,58.76
2019-05-26T05:42:29.875Z,58.58
2019-05-26T05:47:31.272Z,58.48
2019-05-26T05:52:32.581Z,58.09
2019-05-26T05:57:33.917Z,58.11
2019-05-26T06:02:35.269Z,58.25
2019-05-26T06:07:36.597Z,58.59
2019-05-26T06:12:37.923Z,58.36
2019-05-26T06:17:39.230Z,58.11
2019-05-26T06:22:40.583Z,58.14
2019-05-26T06:27:41.949Z,57.95
2019-05-26T06:32:43.349Z,58.09
2019-05-26T06:37:44.682Z,57.62
2019-05-26T06:42:46.034Z,56.96
2019-05-26T06:47:47.349Z,56.60
2019-05-26T06:52:49.483Z,56.61
2019-05-26T06:57:50.797Z,56.61
2019-05-26T07:03:00.782Z,56.11
2019-05-26T07:08:02.159Z,55.16
2019-05-26T07:13:03.569Z,55.66
2019-05-26T07:18:04.916Z,55.09
2019-05-26T07:23:07.595Z,55.56
2019-05-26T07:28:07.652Z,55.08
2019-05-26T07:33:09.066Z,54.73
2019-05-26T07:38:11.213Z,54.15
2019-05-26T07:43:12.557Z,54.28
2019-05-26T07:48:14.042Z,54.47
2019-05-26T07:53:15.407Z,53.33
2019-05-26T07:58:16.713Z,52.28
2019-05-26T08:03:18.029Z,53.40
2019-05-26T08:08:19.361Z,52.74
2019-05-26T08:13:20.682Z,52.58
2019-05-26T08:18:22.040Z,52.72
2019-05-26T08:23:23.374Z,52.27
2019-05-26T08:28:24.717Z,52.20
2019-05-26T08:33:26.037Z,51.56
2019-05-26T08:38:27.415Z,52.15
2019-05-26T08:43:28.712Z,50.87
2019-05-26T08:48:30.108Z,49.55
2019-05-26T08:53:31.505Z,49.70
2019-05-26T08:58:32.849Z,49.77
2019-05-26T09:03:34.159Z,51.29
2019-05-26T09:08:35.466Z,50.33
2019-05-26T09:13:36.786Z,47.75
2019-05-26T09:18:38.104Z,48.39
2019-05-26T09:23:39.427Z,48.15
2019-05-26T09:28:40.805Z,48.52
2019-05-26T09:33:42.139Z,47.47
2019-05-26T09:38:43.460Z,46.81
2019-05-26T09:43:44.831Z,47.30
2019-05-26T09:48:46.155Z,46.11
2019-05-26T09:54:00.887Z,45.22
2019-05-26T09:58:48.899Z,43.20
2019-05-26T10:03:50.244Z,45.15
2019-05-26T10:08:51.624Z,43.22
2019-05-26T10:13:52.970Z,42.44
2019-05-26T10:18:54.309Z,44.56
2019-05-26T10:23:55.644Z,42.87
2019-05-26T10:29:00.368Z,41.17
2019-05-26T10:33:58.326Z,42.23
2019-05-26T10:38:59.662Z,40.33
2019-05-26T10:44:01.025Z,41.25
2019-05-26T10:49:03.109Z,40.50
2019-05-26T10:54:04.477Z,40.81
2019-05-26T10:59:06.616Z,39.86
2019-05-26T11:04:07.946Z,39.13
2019-05-26T11:09:09.245Z,38.81
2019-05-26T11:14:10.555Z,38.52
2019-05-26T11:19:12.617Z,37.93
2019-05-26T11:24:13.968Z,37.94
2019-05-26T11:29:15.293Z,38.17
2019-05-26T11:34:16.629Z,37.99
2019-05-26T11:39:18.695Z,38.46
2019-05-26T11:44:19.994Z,36.41
2019-05-26T11:49:21.376Z,35.12
2019-05-26T11:54:22.695Z,35.07
2019-05-26T11:59:24.053Z,35.30
2019-05-26T12:04:25.386Z,34.79
2019-05-26T12:09:26.778Z,36.78
2019-05-26T12:14:34.726Z,36.42
2019-05-26T12:19:29.532Z,37.04
2019-05-26T12:24:30.829Z,36.06
2019-05-26T12:29:32.151Z,35.08
2019-05-26T12:34:33.522Z,35.29
2019-05-26T12:39:34.926Z,32.99
2019-05-26T12:44:48.632Z,33.58
2019-05-26T12:49:37.699Z,31.62
2019-05-26T12:54:39.078Z,32.35
2019-05-26T12:59:41.144Z,32.10
2019-05-26T13:04:42.476Z,31.24
2019-05-26T13:09:43.807Z,32.55
2019-05-26T13:14:45.141Z,31.87
2019-05-26T13:19:46.461Z,31.30
2019-05-26T13:24:47.749Z,31.64
2019-05-26T13:29:49.142Z,31.46
2019-05-26T13:34:50.506Z,30.34
2019-05-26T13:39:51.812Z,30.73
2019-05-26T13:44:53.177Z,30.86
2019-05-26T13:49:54.517Z,32.38
2019-05-26T13:54:56.579Z,32.11
2019-05-26T13:59:57.912Z,31.07
2019-05-26T14:04:59.236Z,31.33
2019-05-26T14:10:00.613Z,33.10
2019-05-26T14:15:01.993Z,31.88
2019-05-26T14:20:03.358Z,29.98
2019-05-26T14:25:04.734Z,28.80
2019-05-26T14:30:06.170Z,29.30
2019-05-26T14:35:07.550Z,30.23
2019-05-26T14:40:08.837Z,31.22
2019-05-26T14:45:10.159Z,29.09
2019-05-26T14:50:11.521Z,29.72
2019-05-26T14:55:12.853Z,29.58
2019-05-26T15:00:14.187Z,29.03
2019-05-26T15:05:15.496Z,28.44
2019-05-26T15:10:17.573Z,30.34
2019-05-26T15:15:19.245Z,29.46
2019-05-26T15:20:20.578Z,29.21
2019-05-26T15:25:21.906Z,28.66
2019-05-26T15:30:23.281Z,29.93
2019-05-26T15:40:39.264Z,30.34
2019-05-26T15:45:51.917Z,31.12
2019-05-26T15:51:05.819Z,29.79
2019-05-26T15:56:10.639Z,31.41
2019-05-26T16:01:17.649Z,31.65
2019-05-26T16:06:20.668Z,31.92
2019-05-26T16:11:22.516Z,29.89
2019-05-26T16:16:40.095Z,29.41
2019-05-26T16:21:29.018Z,28.60
2019-05-26T16:26:33.959Z,27.24
2019-05-26T16:31:36.651Z,27.31
2019-05-26T16:36:50.729Z,27.36
2019-05-26T16:41:53.669Z,26.00
2019-05-26T16:46:57.201Z,25.83
2019-05-26T16:51:59.880Z,28.73
2019-05-26T16:57:03.720Z,28.39
2019-05-26T17:02:06.456Z,27.77
2019-05-26T17:07:08.570Z,26.49
2019-05-26T17:12:10.560Z,26.76
2019-05-26T17:17:16.739Z,27.25
2019-05-26T17:22:22.502Z,27.67
2019-05-26T17:27:25.010Z,27.91
2019-05-26T17:32:27.897Z,28.02
2019-05-26T17:37:29.615Z,27.92
2019-05-26T17:42:32.335Z,27.00
2019-05-26T17:47:34.384Z,26.54
2019-05-26T17:52:35.780Z,26.11
2019-05-26T17:57:45.225Z,25.77
2019-05-26T18:03:04.216Z,25.55
2019-05-26T18:08:06.274Z,25.64
2019-05-26T18:13:07.582Z,26.62
2019-05-26T18:18:16.517Z,27.23
2019-05-26T18:23:17.871Z,26.53
2019-05-26T18:28:19.185Z,26.49
2019-05-26T18:33:20.531Z,26.67
2019-05-26T18:38:21.849Z,27.28
2019-05-26T18:43:23.950Z,27.83
2019-05-26T18:48:34.569Z,28.52
2019-05-26T18:53:36.047Z,29.17
2019-05-26T18:58:37.462Z,29.69
2019-05-26T19:03:39.553Z,29.92
2019-05-26T19:08:40.911Z,30.43
2019-05-26T19:13:42.356Z,30.88
2019-05-26T19:18:44.425Z,31.42
2019-05-26T19:23:46.321Z,31.28
2019-05-26T19:28:48.519Z,31.84
2019-05-26T19:33:51.258Z,32.02
2019-05-26T19:38:53.205Z,32.18
2019-05-26T19:43:54.508Z,32.40
2019-05-26T19:48:55.836Z,32.90
2019-05-26T19:53:57.237Z,32.85
2019-05-26T19:58:58.613Z,33.21
2019-05-26T20:04:00.029Z,33.52
2019-05-26T20:09:01.401Z,33.96
2019-05-26T20:14:02.838Z,34.33
2019-05-26T20:19:04.927Z,34.75
2019-05-26T20:24:07.051Z,34.73
2019-05-26T20:29:08.377Z,35.01
2019-05-26T20:34:10.483Z,35.42
2019-05-26T20:39:11.827Z,35.61
2019-05-26T20:44:13.191Z,35.74
2019-05-26T20:49:14.517Z,36.49
2019-05-26T20:54:15.853Z,36.87
2019-05-26T20:59:17.322Z,37.07
2019-05-26T21:04:18.841Z,37.40
2019-05-26T21:09:20.962Z,37.53
2019-05-26T21:14:22.333Z,38.23
2019-05-26T21:19:23.668Z,38.69
2019-05-26T21:24:25.774Z,38.79
2019-05-26T21:29:27.150Z,38.82
2019-05-26T21:34:28.513Z,39.49
2019-05-26T21:39:29.881Z,39.88
2019-05-26T21:44:31.211Z,39.93
2019-05-26T21:49:33.241Z,40.21
2019-05-26T21:54:34.564Z,40.16
2019-05-26T21:59:35.901Z,40.03
2019-05-26T22:04:37.205Z,40.28
2019-05-26T22:09:38.534Z,40.82
2019-05-26T22:14:40.586Z,41.14
2019-05-26T22:19:41.897Z,41.39
2019-05-26T22:24:43.220Z,41.54
2019-05-26T22:29:44.625Z,41.45
2019-05-26T22:34:46.659Z,41.77
2019-05-26T22:39:47.995Z,41.79
2019-05-26T22:44:49.310Z,42.12
2019-05-26T22:49:51.352Z,42.45
2019-05-26T22:54:52.695Z,42.63
2019-05-26T22:59:54.041Z,42.97
2019-05-26T23:04:57.458Z,43.24
2019-05-26T23:09:58.757Z,43.17
2019-05-26T23:15:00.144Z,43.53
2019-05-26T23:20:01.457Z,43.81
2019-05-26T23:25:02.802Z,44.54
2019-05-26T23:30:04.842Z,44.76
2019-05-26T23:35:06.166Z,45.29
2019-05-26T23:40:10.927Z,45.53
2019-05-26T23:45:12.258Z,45.62
2019-05-26T23:50:13.604Z,45.92
2019-05-26T23:55:15.669Z,46.56
